createdAt,value
2022-07-28T00:01:27.395Z,4184.8
2022-07-28T00:07:02.259Z,4185.2
2022-07-28T00:12:37.016Z,4183.1
2022-07-28T00:18:12.824Z,4183.5
2022-07-28T00:23:48.291Z,4182.3
2022-07-28T00:29:23.070Z,4182.8
2022-07-28T00:34:58.932Z,4182
2022-07-28T00:40:35.141Z,4180.1
2022-07-28T00:46:11.472Z,4181.5
2022-07-28T00:51:46.260Z,4182.6
2022-07-28T00:57:21.339Z,4184.3
2022-07-28T01:02:59.095Z,4179.6
2022-07-28T01:08:34.438Z,4179.6
2022-07-28T01:14:09.152Z,4179.1
2022-07-28T01:19:44.914Z,4179.1
2022-07-28T01:25:20.744Z,4178.8
2022-07-28T01:30:56.749Z,4180.6
2022-07-28T01:36:31.888Z,4178
2022-07-28T01:42:07.771Z,4178.8
2022-07-28T01:47:42.617Z,4177.8
2022-07-28T01:53:18.453Z,4177.1
2022-07-28T01:58:53.334Z,4176.1
2022-07-28T02:04:28.559Z,4176.4
2022-07-28T02:10:03.364Z,4175.9
2022-07-28T02:15:38.934Z,4176.1
2022-07-28T02:21:13.888Z,4176.4
2022-07-28T02:26:48.562Z,4175.8
2022-07-28T02:32:29.803Z,4176.8
2022-07-28T02:38:04.741Z,4174.8
2022-07-28T02:43:51.797Z,4174.8
2022-07-28T02:49:26.912Z,4176.6
2022-07-28T02:55:01.826Z,4172.3
2022-07-28T03:00:36.971Z,4172.4
2022-07-28T03:06:11.908Z,4176.6
2022-07-28T03:11:46.941Z,4173.9
2022-07-28T03:17:23.840Z,4171.9
2022-07-28T03:22:58.835Z,4173.4
2022-07-28T03:28:33.649Z,4173.8
2022-07-28T03:34:17.698Z,4173.8
2022-07-28T03:39:53.198Z,4172.8
2022-07-28T03:45:27.940Z,4173.9
2022-07-28T03:51:02.756Z,4171.4
2022-07-28T03:56:38.856Z,4172.1
2022-07-28T04:02:14.547Z,4171.6
2022-07-28T04:07:49.739Z,4173.3
2022-07-28T04:13:24.543Z,4173.4
2022-07-28T04:18:59.407Z,4173.3
2022-07-28T04:24:35.215Z,4174.1
2022-07-28T04:30:10.778Z,4168.9
2022-07-28T04:35:45.989Z,4170.9
2022-07-28T04:41:20.945Z,4171.6
2022-07-28T04:46:56.009Z,4171.3
2022-07-28T04:52:30.896Z,4170.4
2022-07-28T04:58:10.089Z,4171.3
2022-07-28T05:03:52.069Z,4170.9
2022-07-28T05:09:26.887Z,4171.3
2022-07-28T05:15:01.729Z,4167.6
2022-07-28T05:20:36.668Z,4169.7
2022-07-28T05:26:11.446Z,4170.4
2022-07-28T05:31:47.058Z,4168.4
2022-07-28T05:37:22.047Z,4167.7
2022-07-28T05:42:56.930Z,4165.6
2022-07-28T05:48:33.416Z,4171.8
2022-07-28T05:54:08.845Z,4166.6
2022-07-28T05:59:43.806Z,4167.7
2022-07-28T06:05:19.666Z,4166.2
2022-07-28T06:10:55.481Z,4168.9
2022-07-28T06:16:53.588Z,4163.5
2022-07-28T06:22:26.481Z,4164.4
2022-07-28T06:28:02.254Z,4165.9
2022-07-28T06:33:57.805Z,4162
2022-07-28T06:39:33.865Z,4166.4
2022-07-28T06:45:22.403Z,4165.6
2022-07-28T06:50:58.271Z,4162.5
2022-07-28T06:56:33.187Z,4165.6
2022-07-28T07:02:07.874Z,4162.7
2022-07-28T07:07:44.801Z,4162.5
2022-07-28T07:13:19.634Z,4162.5
2022-07-28T07:19:17.045Z,4160
2022-07-28T07:24:58.781Z,4162.2
2022-07-28T07:30:33.846Z,4160
2022-07-28T07:36:09.973Z,4161.9
2022-07-28T07:41:46.896Z,4161.5
2022-07-28T07:47:30.223Z,4160.2
2022-07-28T07:53:06.069Z,4161
2022-07-28T07:58:43.066Z,4160.5
2022-07-28T08:04:30.239Z,4162.7
2022-07-28T08:10:05.652Z,4160.4
2022-07-28T08:15:41.393Z,4160
2022-07-28T08:21:16.487Z,4160
2022-07-28T08:26:52.568Z,4161.4
2022-07-28T08:32:27.401Z,4158.5
2022-07-28T08:38:02.240Z,4160.2
2022-07-28T08:43:41.540Z,4158.4
2022-07-28T08:49:17.592Z,4160.7
2022-07-28T08:54:52.534Z,4161.7
2022-07-28T09:00:28.457Z,4158.4
2022-07-28T09:06:03.471Z,4158
2022-07-28T09:11:38.349Z,4157.4
2022-07-28T09:17:35.053Z,4154.3
2022-07-28T09:23:45.528Z,4157.5
2022-07-28T09:29:21.695Z,4157.7
2022-07-28T09:34:56.430Z,4156
2022-07-28T09:40:31.314Z,4159.5
2022-07-28T09:46:08.809Z,4156.8
2022-07-28T09:51:43.968Z,4155.2
2022-07-28T09:57:20.303Z,4157
2022-07-28T10:02:56.395Z,4155.3
2022-07-28T10:08:31.516Z,4155.8
2022-07-28T10:14:06.898Z,4157.5
2022-07-28T10:19:41.834Z,4158.9
2022-07-28T10:25:17.948Z,4157.7
2022-07-28T10:30:56.501Z,4156.5
2022-07-28T10:36:31.540Z,4152
2022-07-28T10:42:06.466Z,4154.7
2022-07-28T10:47:41.542Z,4155.2
2022-07-28T10:53:16.663Z,4156
2022-07-28T10:58:51.659Z,4154
2022-07-28T11:04:30.575Z,4153.7
2022-07-28T11:10:06.479Z,4153.3
2022-07-28T11:15:41.344Z,4153
2022-07-28T11:21:31.032Z,4152.2
2022-07-28T11:27:15.775Z,4153.8
2022-07-28T11:32:50.513Z,4153.2
2022-07-28T11:38:25.627Z,4154.7
2022-07-28T11:44:04.215Z,4151.7
2022-07-28T11:49:42.063Z,4151.5
2022-07-28T11:55:16.940Z,4151.7
2022-07-28T12:00:51.695Z,4152.3
2022-07-28T12:06:30.964Z,4151.5
2022-07-28T12:12:12.667Z,4151
2022-07-28T12:18:10.122Z,4148.8
2022-07-28T12:23:50.541Z,4151.2
2022-07-28T12:29:37.431Z,4151.7
2022-07-28T12:35:14.363Z,4152.3
2022-07-28T12:40:49.130Z,4150.6
2022-07-28T12:46:29.622Z,4149.8
2022-07-28T12:52:07.643Z,4150.8
2022-07-28T12:57:52.360Z,4148.8
2022-07-28T13:03:27.193Z,4148
2022-07-28T13:09:03.258Z,4149
2022-07-28T13:14:38.028Z,4147.8
2022-07-28T13:20:12.906Z,4149
2022-07-28T13:25:47.930Z,4151.2
2022-07-28T13:31:23.641Z,4148.3
2022-07-28T13:36:58.953Z,4147.8
2022-07-28T13:42:34.793Z,4147.1
2022-07-28T13:48:12.758Z,4147.1
2022-07-28T13:53:51.787Z,4148.1
2022-07-28T13:59:29.849Z,4147.1
2022-07-28T14:05:06.115Z,4148.3
2022-07-28T14:10:48.159Z,4146.8
2022-07-28T14:16:48.851Z,4145.8
2022-07-28T14:22:22.684Z,4146.6
2022-07-28T14:27:58.444Z,4147.3
2022-07-28T14:33:33.724Z,4145.6
2022-07-28T14:39:14.070Z,4146.6
2022-07-28T14:44:49.105Z,4145.3
2022-07-28T14:50:25.218Z,4145.5
2022-07-28T14:56:00.159Z,4143.4
2022-07-28T15:01:38.889Z,4145.8
2022-07-28T15:07:13.898Z,4145.5
2022-07-28T15:12:48.557Z,4145.3
2022-07-28T15:18:44.823Z,4141.4
2022-07-28T15:24:19.839Z,4146.3
2022-07-28T15:30:08.669Z,4146
2022-07-28T15:36:00.776Z,4145.5
2022-07-28T15:41:36.950Z,4144.3
2022-07-28T15:47:12.048Z,4144.8
2022-07-28T15:52:46.971Z,4143.6
2022-07-28T15:58:22.002Z,4142.4
2022-07-28T16:03:56.752Z,4145.8
2022-07-28T16:09:47.889Z,4143.8
2022-07-28T16:15:22.860Z,4144.1
2022-07-28T16:20:59.041Z,4143.3
2022-07-28T16:26:34.196Z,4143.6
2022-07-28T16:32:09.358Z,4143.8
2022-07-28T16:37:44.199Z,4142.9
2022-07-28T16:43:18.919Z,4140.8
2022-07-28T16:48:56.814Z,4142.3
2022-07-28T16:54:32.860Z,4140.8
2022-07-28T17:00:07.901Z,4141.1
2022-07-28T17:05:43.177Z,4141.1
2022-07-28T17:11:18.049Z,4140.8
2022-07-28T17:17:14.677Z,4137.6
2022-07-28T17:22:47.522Z,4139.8
2022-07-28T17:28:23.243Z,4139.8
2022-07-28T17:34:00.817Z,4140.3
2022-07-28T17:39:35.837Z,4138.4
2022-07-28T17:45:10.276Z,4137.9
2022-07-28T17:50:46.457Z,4135.4
2022-07-28T17:56:22.869Z,4136.4
2022-07-28T18:01:59.751Z,4137.1
2022-07-28T18:07:59.866Z,4136.9
2022-07-28T18:13:34.919Z,4135.7
2022-07-28T18:19:31.509Z,4133.9
2022-07-28T18:25:07.091Z,4137.2
2022-07-28T18:30:42.422Z,4136.7
2022-07-28T18:36:18.156Z,4134.4
2022-07-28T18:41:54.092Z,4135.6
2022-07-28T18:47:28.952Z,4135.9
2022-07-28T18:53:03.794Z,4132.7
2022-07-28T18:58:38.689Z,4133.2
2022-07-28T19:04:18.107Z,4132.9
2022-07-28T19:09:53.414Z,4134.4
2022-07-28T19:15:28.947Z,4133.1
2022-07-28T19:21:04.854Z,4135.2
2022-07-28T19:26:41.083Z,4134.1
2022-07-28T19:32:15.937Z,4135.1
2022-07-28T19:37:50.815Z,4134.1
2022-07-28T19:43:25.709Z,4129.9
2022-07-28T19:49:02.028Z,4130.5
2022-07-28T19:54:42.408Z,4132.7
2022-07-28T20:00:27.014Z,4130.5
2022-07-28T20:06:02.139Z,4129.4
2022-07-28T20:11:37.162Z,4131.1
2022-07-28T20:17:41.183Z,4127.9
2022-07-28T20:23:16.332Z,4127
2022-07-28T20:28:51.438Z,4127.7
2022-07-28T20:34:26.027Z,4128.9
2022-07-28T20:40:00.938Z,4127.5
2022-07-28T20:45:38.390Z,4127.9
2022-07-28T20:51:13.472Z,4126
2022-07-28T20:56:48.362Z,4126.9
2022-07-28T21:02:24.952Z,4128.2
2022-07-28T21:08:18.932Z,4126.2
2022-07-28T21:13:53.961Z,4125.9
2022-07-28T21:19:28.926Z,4123
2022-07-28T21:25:04.735Z,4128.5
2022-07-28T21:30:39.638Z,4124.7
2022-07-28T21:36:14.366Z,4126
2022-07-28T21:41:49.103Z,4124
2022-07-28T21:47:24.181Z,4128
2022-07-28T21:52:58.919Z,4123.7
2022-07-28T21:58:35.906Z,4125.5
2022-07-28T22:04:11.080Z,4124.2
2022-07-28T22:09:46.942Z,4124
2022-07-28T22:15:21.955Z,4123.8
2022-07-28T22:20:56.614Z,4124.2
2022-07-28T22:26:32.660Z,4123.3
2022-07-28T22:32:08.064Z,4121.7
2022-07-28T22:37:43.474Z,4120.8
2022-07-28T22:43:18.097Z,4121.7
2022-07-28T22:48:54.165Z,4124.2
2022-07-28T22:54:29.350Z,4119.8
2022-07-28T23:00:11.721Z,4123.3
2022-07-28T23:05:54.252Z,4119.7
2022-07-28T23:11:35.864Z,4118.7
2022-07-28T23:17:35.911Z,4117.2
2022-07-28T23:23:12.913Z,4119.3
2022-07-28T23:28:51.580Z,4123
2022-07-28T23:34:32.142Z,4120.3
2022-07-28T23:40:10.680Z,4116
2022-07-28T23:45:49.839Z,4120.3
2022-07-28T23:51:52.343Z,4117.5
2022-07-28T23:57:35.791Z,4117.3
